createdAt,value
2018-08-10T00:00:30.079Z,101038.95
2018-08-10T00:02:34.972Z,101048.58
2018-08-10T00:04:39.859Z,101055.20
2018-08-10T00:06:44.891Z,101058.50
2018-08-10T00:08:49.872Z,101061.61
2018-08-10T00:10:54.969Z,101069.02
2018-08-10T00:13:00.022Z,101061.27
2018-08-10T00:15:05.619Z,101073.66
2018-08-10T00:17:10.516Z,101088.25
2018-08-10T00:19:15.291Z,101091.45
2018-08-10T00:21:20.084Z,101091.41
2018-08-10T00:23:25.094Z,101090.84
2018-08-10T00:25:30.183Z,101099.80
2018-08-10T00:27:35.152Z,101104.27
2018-08-10T00:29:40.047Z,101108.91
2018-08-10T00:31:45.291Z,101121.48
2018-08-10T00:33:50.163Z,101119.70
2018-08-10T00:35:55.087Z,101126.12
2018-08-10T00:38:00.180Z,101116.45
2018-08-10T00:40:06.549Z,101134.07
2018-08-10T00:42:11.480Z,101137.98
2018-08-10T00:44:16.482Z,101147.41
2018-08-10T00:46:21.531Z,101144.09
2018-08-10T00:48:26.428Z,101147.92
2018-08-10T00:50:31.407Z,101158.30
2018-08-10T00:52:36.434Z,101174.72
2018-08-10T00:54:41.363Z,101161.55
2018-08-10T00:56:46.295Z,101164.64
2018-08-10T00:58:51.234Z,101169.88
2018-08-10T01:00:56.277Z,101170.53
2018-08-10T01:03:01.064Z,101086.45
2018-08-10T01:05:07.656Z,101163.44
2018-08-10T01:07:12.511Z,101168.49
2018-08-10T01:09:17.385Z,101169.88
2018-08-10T01:11:22.301Z,101175.93
2018-08-10T01:13:27.353Z,101170.66
2018-08-10T01:15:32.109Z,101174.55
2018-08-10T01:17:37.183Z,101181.77
2018-08-10T01:19:42.306Z,101190.44
2018-08-10T01:21:47.360Z,101190.23
2018-08-10T01:23:52.417Z,101187.23
2018-08-10T01:25:57.351Z,101170.25
2018-08-10T01:28:03.452Z,101205.58
2018-08-10T01:30:08.447Z,101203.91
2018-08-10T01:32:13.401Z,101200.27
2018-08-10T01:34:18.325Z,101211.46
2018-08-10T01:36:23.338Z,101215.12
2018-08-10T01:38:28.297Z,101204.69
2018-08-10T01:40:33.102Z,101212.41
2018-08-10T01:42:38.095Z,101215.50
2018-08-10T01:44:43.000Z,101218.09
2018-08-10T01:46:47.864Z,101227.80
2018-08-10T01:48:52.636Z,101225.72
2018-08-10T01:50:57.406Z,101236.03
2018-08-10T01:53:02.212Z,101238.25
2018-08-10T01:55:07.321Z,101234.96
2018-08-10T01:57:12.325Z,101231.95
2018-08-10T01:59:17.122Z,101230.85
2018-08-10T02:01:22.052Z,101237.73
2018-08-10T02:03:26.805Z,101238.80
2018-08-10T02:05:31.622Z,101242.32
2018-08-10T02:07:38.162Z,101246.05
2018-08-10T02:09:43.135Z,101240.50
2018-08-10T02:11:48.058Z,101245.92
2018-08-10T02:13:52.851Z,101242.03
2018-08-10T02:15:58.028Z,101175.91
2018-08-10T02:18:02.890Z,101246.48
2018-08-10T02:20:10.522Z,101253.44
2018-08-10T02:22:15.443Z,101242.58
2018-08-10T02:24:20.360Z,101261.05
2018-08-10T02:26:25.600Z,101249.83
2018-08-10T02:28:30.523Z,101259.64
2018-08-10T02:30:35.599Z,101263.55
2018-08-10T02:32:41.198Z,101265.98
2018-08-10T02:34:46.129Z,101266.81
2018-08-10T02:36:51.584Z,101267.11
2018-08-10T02:38:56.474Z,101273.38
2018-08-10T02:41:01.380Z,101261.69
2018-08-10T02:43:06.215Z,101263.25
2018-08-10T02:45:11.263Z,101261.23
2018-08-10T02:47:20.241Z,101271.42
2018-08-10T02:49:25.622Z,101272.09
2018-08-10T02:51:30.490Z,101276.55
2018-08-10T02:53:35.393Z,101279.65
2018-08-10T02:55:40.300Z,101284.92
2018-08-10T02:57:45.108Z,101280.84
2018-08-10T02:59:50.071Z,101290.98
2018-08-10T03:01:55.305Z,101294.70
2018-08-10T03:04:00.216Z,101295.47
2018-08-10T03:06:05.823Z,101302.88
2018-08-10T03:08:10.858Z,101297.96
2018-08-10T03:10:16.161Z,101305.88
2018-08-10T03:12:21.027Z,101309.18
2018-08-10T03:14:25.934Z,101306.81
2018-08-10T03:16:30.861Z,101303.23
2018-08-10T03:18:36.186Z,101313.89
2018-08-10T03:20:41.905Z,101309.75
2018-08-10T03:22:47.894Z,101302.30
2018-08-10T03:24:52.916Z,101314.57
2018-08-10T03:26:57.883Z,101319.05
2018-08-10T03:29:02.852Z,101331.17
2018-08-10T03:31:07.854Z,101325.21
2018-08-10T03:33:12.814Z,101326.58
2018-08-10T03:35:17.888Z,101323.37
2018-08-10T03:37:22.685Z,101244.44
2018-08-10T03:39:27.407Z,101331.51
2018-08-10T03:41:32.481Z,101327.94
2018-08-10T03:43:38.360Z,101330.41
2018-08-10T03:45:43.367Z,101246.31
2018-08-10T03:47:48.642Z,101320.38
2018-08-10T03:49:53.558Z,101340.11
2018-08-10T03:51:58.466Z,101335.89
2018-08-10T03:54:03.425Z,101335.66
2018-08-10T03:56:08.391Z,101343.11
2018-08-10T03:58:13.275Z,101270.50
2018-08-10T04:00:18.269Z,101345.77
2018-08-10T04:02:23.384Z,101341.80
2018-08-10T04:04:28.304Z,101350.14
2018-08-10T04:06:33.264Z,101345.27
2018-08-10T04:08:38.123Z,101350.14
2018-08-10T04:10:42.969Z,101349.08
2018-08-10T04:12:47.721Z,101347.15
2018-08-10T04:14:52.513Z,101337.34
2018-08-10T04:16:57.396Z,101350.78
2018-08-10T04:19:02.408Z,101353.22
2018-08-10T04:21:07.394Z,101361.73
2018-08-10T04:23:12.478Z,101362.00
2018-08-10T04:25:17.343Z,101362.91
2018-08-10T04:27:22.413Z,101364.44
2018-08-10T04:29:27.586Z,101350.61
2018-08-10T04:31:32.492Z,101370.45
2018-08-10T04:33:37.400Z,101374.19
2018-08-10T04:35:42.341Z,101376.03
2018-08-10T04:37:47.395Z,101386.22
2018-08-10T04:39:52.551Z,101389.27
2018-08-10T04:41:57.666Z,101389.42
2018-08-10T04:44:02.713Z,101375.56
2018-08-10T04:46:08.044Z,101388.66
2018-08-10T04:48:13.220Z,101390.16
2018-08-10T04:50:18.968Z,101398.91
2018-08-10T04:52:23.765Z,101389.13
2018-08-10T04:54:28.595Z,101399.81
2018-08-10T04:56:33.484Z,101396.75
2018-08-10T04:58:38.389Z,101406.80
2018-08-10T05:00:43.264Z,101400.80
2018-08-10T05:02:48.309Z,101405.54
2018-08-10T05:04:53.484Z,101402.25
2018-08-10T05:06:58.415Z,101406.48
2018-08-10T05:09:03.467Z,101408.71
2018-08-10T05:11:08.448Z,101404.89
2018-08-10T05:13:13.465Z,101405.06
2018-08-10T05:15:18.561Z,101410.47
2018-08-10T05:17:23.615Z,101403.02
2018-08-10T05:19:28.730Z,101410.58
2018-08-10T05:21:33.585Z,101412.46
2018-08-10T05:23:38.482Z,101417.87
2018-08-10T05:25:43.548Z,101350.79
2018-08-10T05:27:48.450Z,101424.97
2018-08-10T05:29:53.686Z,101423.03
2018-08-10T05:31:59.001Z,101428.72
2018-08-10T05:34:04.030Z,101430.48
2018-08-10T05:36:09.341Z,101433.97
2018-08-10T05:38:14.383Z,101425.03
2018-08-10T05:40:19.560Z,101443.50
2018-08-10T05:42:24.849Z,101440.16
2018-08-10T05:44:29.818Z,101446.20
2018-08-10T05:46:34.728Z,101435.75
2018-08-10T05:48:41.200Z,101438.09
2018-08-10T05:50:46.244Z,101439.84
2018-08-10T05:52:51.458Z,101438.25
2018-08-10T05:54:57.167Z,101431.27
2018-08-10T05:57:03.141Z,101446.05
2018-08-10T05:59:08.146Z,101452.15
2018-08-10T06:01:13.747Z,101447.20
2018-08-10T06:03:18.863Z,101454.08
2018-08-10T06:05:23.702Z,101451.95
2018-08-10T06:07:28.574Z,101454.37
2018-08-10T06:09:33.409Z,101460.23
2018-08-10T06:11:38.224Z,101448.56
2018-08-10T06:13:43.060Z,101454.56
2018-08-10T06:15:48.102Z,101458.80
2018-08-10T06:17:52.913Z,101466.20
2018-08-10T06:19:57.856Z,101469.78
2018-08-10T06:22:02.740Z,101462.17
2018-08-10T06:24:07.677Z,101462.68
2018-08-10T06:26:12.523Z,101462.91
2018-08-10T06:28:17.467Z,101461.59
2018-08-10T06:30:22.803Z,101469.20
2018-08-10T06:32:27.832Z,101466.09
2018-08-10T06:34:32.796Z,101460.09
2018-08-10T06:36:37.749Z,101478.07
2018-08-10T06:38:42.746Z,101471.65
2018-08-10T06:40:47.775Z,101471.48
2018-08-10T06:42:52.526Z,101480.53
2018-08-10T06:44:57.623Z,101487.13
2018-08-10T06:47:02.401Z,101488.56
2018-08-10T06:49:07.222Z,101486.04
2018-08-10T06:51:12.446Z,101488.16
2018-08-10T06:53:17.354Z,101486.45
2018-08-10T06:55:22.186Z,101492.79
2018-08-10T06:57:27.314Z,101485.58
2018-08-10T06:59:32.313Z,101491.97
2018-08-10T07:01:37.311Z,101493.96
2018-08-10T07:03:42.163Z,101486.55
2018-08-10T07:05:47.233Z,101485.84
2018-08-10T07:07:52.437Z,101492.61
2018-08-10T07:09:57.418Z,101481.53
2018-08-10T07:12:02.323Z,101488.61
2018-08-10T07:14:07.322Z,101481.86
2018-08-10T07:16:12.505Z,101490.74
2018-08-10T07:18:17.585Z,101483.24
2018-08-10T07:20:22.743Z,101480.96
2018-08-10T07:22:27.635Z,101488.46
2018-08-10T07:24:32.436Z,101494.63
2018-08-10T07:26:37.420Z,101491.73
2018-08-10T07:28:42.619Z,101495.00
2018-08-10T07:30:47.580Z,101499.86
2018-08-10T07:32:52.697Z,101494.33
2018-08-10T07:34:57.821Z,101490.73
2018-08-10T07:37:02.900Z,101507.11
2018-08-10T07:39:11.374Z,101496.69
2018-08-10T07:41:16.380Z,101505.23
2018-08-10T07:43:21.637Z,101501.96
2018-08-10T07:45:26.685Z,101500.36
2018-08-10T07:47:31.803Z,101498.19
2018-08-10T07:49:36.699Z,101498.69
2018-08-10T07:51:41.675Z,101500.88
2018-08-10T07:53:47.154Z,101496.59
2018-08-10T07:55:52.015Z,101499.87
2018-08-10T07:57:57.279Z,101510.51
2018-08-10T08:00:02.113Z,101500.39
2018-08-10T08:02:07.200Z,101506.82
2018-08-10T08:04:12.299Z,101423.51
2018-08-10T08:06:17.402Z,101510.58
2018-08-10T08:08:22.623Z,101501.23
2018-08-10T08:10:27.787Z,101506.23
2018-08-10T08:12:32.911Z,101511.25
2018-08-10T08:14:38.567Z,101427.31
2018-08-10T08:16:43.568Z,101508.54
2018-08-10T08:18:48.602Z,101517.72
2018-08-10T08:21:07.624Z,101515.45
2018-08-10T08:23:12.672Z,101523.02
2018-08-10T08:25:17.599Z,101514.92
2018-08-10T08:27:22.598Z,101521.92
2018-08-10T08:29:27.577Z,101506.12
2018-08-10T08:31:32.771Z,101523.33
2018-08-10T08:34:04.998Z,101533.66
2018-08-10T08:36:10.104Z,101529.67
2018-08-10T08:38:30.489Z,101538.55
2018-08-10T08:40:35.611Z,101534.69
2018-08-10T08:42:41.146Z,101529.91
2018-08-10T08:46:53.679Z,101530.37
2018-08-10T08:49:02.394Z,101543.36
2018-08-10T08:51:15.448Z,101529.85
2018-08-10T08:53:25.854Z,101537.93
2018-08-10T08:55:33.999Z,101530.91
2018-08-10T08:57:39.067Z,101550.03
2018-08-10T08:59:44.156Z,101544.42
2018-08-10T09:01:49.158Z,101538.16
2018-08-10T09:05:09.077Z,101543.44
2018-08-10T09:07:14.083Z,101549.98
2018-08-10T09:09:35.715Z,101537.77
2018-08-10T09:11:40.714Z,101539.03
2018-08-10T09:14:58.287Z,101542.17
2018-08-10T09:17:03.289Z,101545.36
2018-08-10T09:19:08.329Z,101544.48
2018-08-10T09:21:13.272Z,101552.84
2018-08-10T09:23:18.360Z,101550.49
2018-08-10T09:25:23.449Z,101544.67
2018-08-10T09:27:28.655Z,101535.59
2018-08-10T09:29:34.628Z,101548.16
2018-08-10T09:31:39.830Z,101547.31
2018-08-10T09:33:44.994Z,101551.55
2018-08-10T09:35:50.243Z,101546.03
2018-08-10T09:37:55.262Z,101546.33
2018-08-10T09:40:00.454Z,101552.44
2018-08-10T09:42:05.589Z,101556.83
2018-08-10T09:44:10.741Z,101550.80
2018-08-10T09:46:15.729Z,101545.53
2018-08-10T09:48:20.740Z,101552.22
2018-08-10T09:50:25.607Z,101555.59
2018-08-10T09:52:30.624Z,101566.20
2018-08-10T09:54:46.668Z,101556.91
2018-08-10T09:56:52.195Z,101550.17
2018-08-10T09:58:57.522Z,101476.67
2018-08-10T10:01:08.510Z,101562.20
2018-08-10T10:03:19.080Z,101551.98
2018-08-10T10:05:26.181Z,101548.52
2018-08-10T10:07:31.260Z,101551.68
2018-08-10T10:09:36.747Z,101553.73
2018-08-10T10:11:41.884Z,101549.52
2018-08-10T10:13:47.122Z,101542.53
2018-08-10T10:15:52.367Z,101539.56
2018-08-10T10:17:57.661Z,101545.98
2018-08-10T10:20:03.591Z,101552.36
2018-08-10T10:22:08.896Z,101548.51
2018-08-10T10:24:14.108Z,101554.53
2018-08-10T10:26:19.394Z,101548.72
2018-08-10T10:28:24.576Z,101558.73
2018-08-10T10:30:29.750Z,101544.66
2018-08-10T10:32:35.123Z,101559.23
2018-08-10T10:34:40.476Z,101560.66
2018-08-10T10:36:45.490Z,101548.53
2018-08-10T10:38:50.503Z,101544.08
2018-08-10T10:40:55.465Z,101550.91
2018-08-10T10:43:00.503Z,101540.89
2018-08-10T10:45:07.606Z,101542.63
2018-08-10T10:47:12.772Z,101542.77
2018-08-10T10:49:17.591Z,101547.29
2018-08-10T10:51:22.793Z,101544.78
2018-08-10T10:53:27.797Z,101536.89
2018-08-10T10:55:32.838Z,101554.05
2018-08-10T10:57:37.972Z,101547.09
2018-08-10T10:59:42.962Z,101551.70
2018-08-10T11:01:48.043Z,101548.32
2018-08-10T11:03:53.043Z,101539.61
2018-08-10T11:05:57.848Z,101549.42
2018-08-10T11:08:02.928Z,101533.95
2018-08-10T11:10:10.178Z,101539.27
2018-08-10T11:12:15.496Z,101545.07
2018-08-10T11:14:20.496Z,101543.34
2018-08-10T11:16:25.555Z,101548.58
2018-08-10T11:18:30.487Z,101541.89
2018-08-10T11:20:35.981Z,101547.25
2018-08-10T11:22:41.786Z,101546.49
2018-08-10T11:24:46.703Z,101536.91
2018-08-10T11:26:51.864Z,101542.33
2018-08-10T11:28:56.796Z,101531.17
2018-08-10T11:31:01.862Z,101526.09
2018-08-10T11:33:07.058Z,101539.71
2018-08-10T11:35:12.416Z,101531.51
2018-08-10T11:37:17.391Z,101526.69
2018-08-10T11:39:22.585Z,101543.44
2018-08-10T11:41:30.168Z,101463.60
2018-08-10T11:43:35.092Z,101527.23
2018-08-10T11:45:40.245Z,101540.86
2018-08-10T11:47:45.589Z,101527.71
2018-08-10T11:49:51.826Z,101538.67
2018-08-10T11:51:57.189Z,101541.61
2018-08-10T11:54:02.366Z,101539.17
2018-08-10T11:56:07.278Z,101532.26
2018-08-10T11:58:12.153Z,101540.41
2018-08-10T12:00:17.046Z,101530.14
2018-08-10T12:02:22.111Z,101519.21
2018-08-10T12:04:27.365Z,101531.15
2018-08-10T12:06:32.291Z,101532.63
2018-08-10T12:08:37.567Z,101521.37
2018-08-10T12:10:42.635Z,101522.27
2018-08-10T12:12:47.935Z,101524.20
2018-08-10T12:14:53.387Z,101520.27
2018-08-10T12:16:58.432Z,101527.05
2018-08-10T12:19:03.801Z,101520.15
2018-08-10T12:21:21.183Z,101521.98
2018-08-10T12:23:26.089Z,101529.92
2018-08-10T12:25:31.021Z,101529.59
2018-08-10T12:27:35.924Z,101522.16
2018-08-10T12:29:40.861Z,101513.62
2018-08-10T12:31:45.980Z,101515.45
2018-08-10T12:33:51.055Z,101523.39
2018-08-10T12:35:56.117Z,101519.52
2018-08-10T12:38:01.110Z,101526.58
2018-08-10T12:40:06.351Z,101519.97
2018-08-10T12:42:11.270Z,101520.69
2018-08-10T12:44:16.258Z,101535.22
2018-08-10T12:46:21.112Z,101524.69
2018-08-10T12:48:25.998Z,101531.05
2018-08-10T12:50:30.875Z,101522.20
2018-08-10T12:52:35.744Z,101515.48
2018-08-10T12:54:40.841Z,101520.12
2018-08-10T12:56:45.936Z,101451.95
2018-08-10T12:58:51.031Z,101519.19
2018-08-10T13:00:56.095Z,101523.67
2018-08-10T13:03:01.675Z,101511.22
2018-08-10T13:05:07.329Z,101514.76
2018-08-10T13:07:12.540Z,101526.82
2018-08-10T13:09:17.445Z,101520.66
2018-08-10T13:11:22.345Z,101536.15
2018-08-10T13:13:27.575Z,101540.50
2018-08-10T13:15:32.615Z,101513.52
2018-08-10T13:17:37.877Z,101522.02
2018-08-10T13:19:42.943Z,101496.44
2018-08-10T13:21:47.997Z,101523.53
2018-08-10T13:23:53.126Z,101523.70
2018-08-10T13:25:58.214Z,101519.63
2018-08-10T13:28:03.104Z,101514.37
2018-08-10T13:30:10.180Z,101519.14
2018-08-10T13:32:15.240Z,101515.81
2018-08-10T13:34:20.542Z,101515.93
2018-08-10T13:36:25.498Z,101522.89
2018-08-10T13:38:30.549Z,101490.71
2018-08-10T13:40:35.798Z,101506.03
2018-08-10T13:42:40.869Z,101515.23
2018-08-10T13:44:46.463Z,101492.89
2018-08-10T13:46:51.408Z,101494.67
2018-08-10T13:48:56.512Z,101509.62
2018-08-10T13:51:01.772Z,101489.02
2018-08-10T13:53:07.200Z,101490.89
2018-08-10T13:55:16.258Z,101489.55
2018-08-10T13:57:21.248Z,101489.45
2018-08-10T13:59:26.212Z,101488.63
2018-08-10T14:01:32.038Z,101488.75
2018-08-10T14:03:37.172Z,101485.59
2018-08-10T14:05:46.692Z,101500.44
2018-08-10T14:07:52.914Z,101470.86
2018-08-10T14:09:59.989Z,101497.92
2018-08-10T14:12:05.168Z,101487.13
2018-08-10T14:14:10.350Z,101476.14
2018-08-10T14:16:16.990Z,101470.30
2018-08-10T14:18:22.163Z,101476.41
2018-08-10T14:20:27.415Z,101473.63
2018-08-10T14:22:32.983Z,101466.00
2018-08-10T14:24:38.287Z,101473.13
2018-08-10T14:26:44.019Z,101450.26
2018-08-10T14:28:48.866Z,101459.51
2018-08-10T14:30:53.944Z,101463.83
2018-08-10T14:32:59.066Z,101462.55
2018-08-10T14:35:04.003Z,101463.33
2018-08-10T14:37:09.085Z,101456.41
2018-08-10T14:39:14.497Z,101454.70
2018-08-10T14:41:19.468Z,101441.09
2018-08-10T14:43:24.369Z,101377.08
2018-08-10T14:45:29.300Z,101457.25
2018-08-10T14:47:34.432Z,101456.14
2018-08-10T14:49:39.397Z,101462.55
2018-08-10T14:51:44.277Z,101453.02
2018-08-10T14:53:49.344Z,101451.70
2018-08-10T14:55:54.522Z,101455.59
2018-08-10T14:58:00.128Z,101446.50
2018-08-10T15:00:08.759Z,101440.05
2018-08-10T15:02:23.385Z,101453.78
2018-08-10T15:04:39.082Z,101439.80
2018-08-10T15:06:44.787Z,101443.33
2018-08-10T15:08:54.059Z,101449.19
2018-08-10T15:10:59.810Z,101450.45
2018-08-10T15:13:05.398Z,101445.61
2018-08-10T15:15:19.315Z,101434.57
2018-08-10T15:17:36.144Z,101449.91
2018-08-10T15:19:41.080Z,101430.25
2018-08-10T15:21:46.454Z,101426.81
2018-08-10T15:23:51.715Z,101422.83
2018-08-10T15:25:57.325Z,101428.08
2018-08-10T15:28:03.248Z,101420.78
2018-08-10T15:30:11.757Z,101428.98
2018-08-10T15:32:16.852Z,101417.55
2018-08-10T15:34:22.171Z,101425.84
2018-08-10T15:36:28.698Z,101418.45
2018-08-10T15:38:33.548Z,101415.99
2018-08-10T15:40:40.003Z,101425.98
2018-08-10T15:42:46.047Z,101437.78
2018-08-10T15:44:51.113Z,101420.80
2018-08-10T15:46:57.037Z,101420.41
2018-08-10T15:49:02.911Z,101419.90
2018-08-10T15:51:08.414Z,101399.03
2018-08-10T15:53:13.302Z,101414.42
2018-08-10T15:55:18.281Z,101417.05
2018-08-10T15:57:23.880Z,101414.88
2018-08-10T15:59:28.758Z,101412.63
2018-08-10T16:01:36.545Z,101406.13
2018-08-10T16:03:46.094Z,101399.57
2018-08-10T16:05:51.138Z,101410.13
2018-08-10T16:07:56.326Z,101408.37
2018-08-10T16:10:01.385Z,101413.42
2018-08-10T16:12:14.666Z,101408.12
2018-08-10T16:14:21.876Z,101409.35
2018-08-10T16:16:28.969Z,101407.16
2018-08-10T16:21:20.711Z,101411.92
2018-08-10T16:23:31.049Z,101402.94
2018-08-10T16:25:39.894Z,101407.97
2018-08-10T16:27:49.205Z,101403.16
2018-08-10T16:29:54.855Z,101396.25
2018-08-10T16:32:01.905Z,101395.56
2018-08-10T16:34:07.515Z,101394.97
2018-08-10T16:38:26.082Z,101401.56
2018-08-10T16:40:32.906Z,101395.87
2018-08-10T16:42:39.466Z,101397.58
2018-08-10T16:44:45.301Z,101395.89
2018-08-10T16:46:55.454Z,101391.53
2018-08-10T16:49:06.735Z,101390.72
2018-08-10T16:51:14.074Z,101393.31
2018-08-10T16:53:19.635Z,101387.26
2018-08-10T16:55:24.896Z,101386.80
2018-08-10T16:57:30.080Z,101384.28
2018-08-10T16:59:35.056Z,101384.25
2018-08-10T17:01:40.033Z,101382.45
2018-08-10T17:03:45.279Z,101381.46
2018-08-10T17:05:50.758Z,101383.12
2018-08-10T17:07:55.998Z,101390.70
2018-08-10T17:10:01.829Z,101383.27
2018-08-10T17:12:13.110Z,101389.92
2018-08-10T17:14:18.421Z,101381.26
2018-08-10T17:16:23.763Z,101386.06
2018-08-10T17:18:28.695Z,101383.01
2018-08-10T17:20:37.273Z,101381.22
2018-08-10T17:22:43.715Z,101385.16
2018-08-10T17:24:54.775Z,101380.32
2018-08-10T17:26:59.807Z,101376.61
2018-08-10T17:29:05.430Z,101383.10
2018-08-10T17:31:13.387Z,101380.08
2018-08-10T17:33:21.119Z,101373.16
2018-08-10T17:35:30.393Z,101370.60
2018-08-10T17:37:37.382Z,101367.05
2018-08-10T17:39:42.968Z,101365.29
2018-08-10T17:41:49.125Z,101364.45
2018-08-10T17:43:54.530Z,101364.48
2018-08-10T17:46:03.332Z,101368.41
2018-08-10T17:48:10.977Z,101366.28
2018-08-10T17:50:24.031Z,101371.45
2018-08-10T17:52:31.093Z,101366.63
2018-08-10T17:54:43.999Z,101371.41
2018-08-10T17:57:00.077Z,101319.60
2018-08-10T17:59:05.541Z,101370.20
2018-08-10T18:01:11.006Z,101365.81
2018-08-10T18:03:22.218Z,101360.06
2018-08-10T18:05:37.220Z,101369.56
2018-08-10T18:07:49.668Z,101380.50
2018-08-10T18:09:59.900Z,101375.58
2018-08-10T18:12:07.481Z,101362.33
2018-08-10T18:14:13.175Z,101368.66
2018-08-10T18:16:23.086Z,101366.42
2018-08-10T18:18:40.704Z,101365.22
2018-08-10T18:20:50.646Z,101364.73
2018-08-10T18:23:02.194Z,101365.01
2018-08-10T18:25:13.216Z,101364.09
2018-08-10T18:27:19.504Z,101364.59
2018-08-10T18:29:31.597Z,101360.21
2018-08-10T18:31:38.868Z,101361.95
2018-08-10T18:33:47.904Z,101353.83
2018-08-10T18:35:57.374Z,101357.02
2018-08-10T18:38:05.446Z,101352.64
2018-08-10T18:40:14.101Z,101352.34
2018-08-10T18:42:20.875Z,101347.48
2018-08-10T18:44:28.232Z,101346.95
2018-08-10T18:46:36.234Z,101350.36
2018-08-10T18:48:43.911Z,101353.41
2018-08-10T18:50:56.132Z,101357.58
2018-08-10T18:53:03.456Z,101352.14
2018-08-10T18:55:19.091Z,101348.13
2018-08-10T18:57:29.199Z,101349.67
2018-08-10T18:59:40.091Z,101349.55
2018-08-10T19:01:46.965Z,101351.69
2018-08-10T19:03:54.054Z,101348.77
2018-08-10T19:06:04.815Z,101350.77
2018-08-10T19:08:13.612Z,101348.97
2018-08-10T19:10:26.213Z,101316.52
2018-08-10T19:12:35.480Z,101347.06
2018-08-10T19:14:50.336Z,101351.77
2018-08-10T19:16:57.204Z,101335.05
2018-08-10T19:19:18.216Z,101358.13
2018-08-10T19:21:35.280Z,101354.69
2018-08-10T19:23:47.431Z,101352.91
2018-08-10T19:25:57.729Z,101359.00
2018-08-10T19:28:13.509Z,101355.16
2018-08-10T19:30:30.659Z,101357.14
2018-08-10T19:32:45.307Z,101365.17
2018-08-10T19:35:00.434Z,101358.11
2018-08-10T19:37:10.350Z,101283.84
2018-08-10T19:39:24.886Z,101361.83
2018-08-10T19:41:31.653Z,101368.20
2018-08-10T19:43:40.431Z,101371.28
2018-08-10T19:45:46.798Z,101369.55
2018-08-10T19:47:52.585Z,101365.70
2018-08-10T19:49:59.515Z,101366.13
2018-08-10T19:52:04.885Z,101368.14
2018-08-10T19:54:10.307Z,101369.36
2018-08-10T19:56:16.091Z,101373.61
2018-08-10T19:58:21.422Z,101367.58
2018-08-10T20:00:27.120Z,101369.34
2018-08-10T20:02:40.363Z,101371.38
2018-08-10T20:04:45.874Z,101364.98
2018-08-10T20:06:51.464Z,101363.45
2018-08-10T20:08:57.319Z,101368.97
2018-08-10T20:11:02.383Z,101361.43
2018-08-10T20:13:07.330Z,101357.89
2018-08-10T20:15:19.946Z,101358.71
2018-08-10T20:17:26.198Z,101354.23
2018-08-10T20:19:32.170Z,101349.84
2018-08-10T20:21:39.435Z,101345.44
2018-08-10T20:23:46.606Z,101344.59
2018-08-10T20:25:52.415Z,101345.83
2018-08-10T20:27:58.121Z,101344.50
2018-08-10T20:30:03.834Z,101345.25
2018-08-10T20:32:09.483Z,101349.12
2018-08-10T20:34:15.141Z,101346.97
2018-08-10T20:36:20.950Z,101339.11
2018-08-10T20:38:26.880Z,101342.16
2018-08-10T20:40:34.651Z,101341.92
2018-08-10T20:42:43.624Z,101337.23
2018-08-10T20:44:51.749Z,101339.31
2018-08-10T20:47:01.637Z,101283.88
2018-08-10T20:49:10.777Z,101338.24
2018-08-10T20:51:19.466Z,101257.08
2018-08-10T20:53:24.749Z,101339.84
2018-08-10T20:55:30.943Z,101324.92
2018-08-10T20:57:36.393Z,101340.80
2018-08-10T20:59:41.502Z,101336.74
2018-08-10T21:01:46.711Z,101348.84
2018-08-10T21:03:54.446Z,101340.52
2018-08-10T21:06:00.829Z,101345.52
2018-08-10T21:08:06.333Z,101339.70
2018-08-10T21:10:14.943Z,101342.34
2018-08-10T21:12:20.079Z,101331.35
2018-08-10T21:14:25.394Z,101334.34
2018-08-10T21:16:30.604Z,101343.61
2018-08-10T21:18:36.432Z,101341.72
2018-08-10T21:20:41.661Z,101344.18
2018-08-10T21:22:47.337Z,101339.89
2018-08-10T21:24:52.569Z,101335.09
2018-08-10T21:26:58.165Z,101339.92
2018-08-10T21:29:03.465Z,101342.07
2018-08-10T21:31:08.542Z,101340.80
2018-08-10T21:33:13.983Z,101339.64
2018-08-10T21:35:19.116Z,101332.84
2018-08-10T21:37:24.368Z,101333.59
2018-08-10T21:39:29.688Z,101333.14
2018-08-10T21:41:34.842Z,101329.50
2018-08-10T21:43:40.069Z,101335.31
2018-08-10T21:45:45.295Z,101335.50
2018-08-10T21:47:50.426Z,101330.58
2018-08-10T21:49:55.395Z,101323.78
2018-08-10T21:52:00.705Z,101331.13
2018-08-10T21:54:05.724Z,101328.04
2018-08-10T21:56:10.933Z,101332.00
2018-08-10T21:58:16.099Z,101327.19
2018-08-10T22:00:32.344Z,101326.31
2018-08-10T22:02:37.431Z,101329.23
2018-08-10T22:04:42.651Z,101322.55
2018-08-10T22:06:47.795Z,101325.59
2018-08-10T22:08:52.998Z,101319.00
2018-08-10T22:10:58.026Z,101321.25
2018-08-10T22:13:03.027Z,101318.91
2018-08-10T22:15:13.396Z,101317.41
2018-08-10T22:17:23.361Z,101321.09
2018-08-10T22:19:28.344Z,101316.11
2018-08-10T22:21:33.364Z,101312.11
2018-08-10T22:23:38.266Z,101313.02
2018-08-10T22:25:43.359Z,101312.08
2018-08-10T22:27:48.386Z,101304.93
2018-08-10T22:29:53.428Z,101317.11
2018-08-10T22:31:58.484Z,101320.10
2018-08-10T22:34:04.759Z,101316.55
2018-08-10T22:36:09.805Z,101312.69
2018-08-10T22:38:14.972Z,101309.08
2018-08-10T22:40:20.621Z,101321.72
2018-08-10T22:42:25.851Z,101321.33
2018-08-10T22:44:31.412Z,101320.48
2018-08-10T22:46:36.793Z,101319.67
2018-08-10T22:48:42.651Z,101315.95
2018-08-10T22:50:47.850Z,101323.19
2018-08-10T22:52:52.950Z,101323.16
2018-08-10T22:54:58.459Z,101315.75
2018-08-10T22:57:03.432Z,101318.02
2018-08-10T22:59:08.580Z,101234.75
2018-08-10T23:01:13.736Z,101317.05
2018-08-10T23:03:18.886Z,101300.19
2018-08-10T23:05:24.139Z,101310.09
2018-08-10T23:07:29.321Z,101312.44
2018-08-10T23:09:34.330Z,101312.69
2018-08-10T23:11:39.521Z,101309.64
2018-08-10T23:13:44.713Z,101311.23
2018-08-10T23:15:49.648Z,101319.75
2018-08-10T23:17:54.768Z,101309.64
2018-08-10T23:19:59.813Z,101314.38
2018-08-10T23:22:04.942Z,101296.83
2018-08-10T23:24:09.986Z,101303.39
2018-08-10T23:26:14.825Z,101298.75
2018-08-10T23:28:19.747Z,101300.02
2018-08-10T23:30:24.701Z,101300.44
2018-08-10T23:32:29.711Z,101290.86
2018-08-10T23:34:34.860Z,101290.62
2018-08-10T23:36:39.798Z,101286.54
2018-08-10T23:38:44.717Z,101290.54
2018-08-10T23:40:49.721Z,101289.98
2018-08-10T23:42:54.748Z,101291.45
2018-08-10T23:44:59.802Z,101293.11
2018-08-10T23:47:05.296Z,101278.39
2018-08-10T23:49:10.417Z,101261.21
2018-08-10T23:51:15.389Z,101278.59
2018-08-10T23:53:20.290Z,101283.09
2018-08-10T23:55:25.354Z,101280.27
2018-08-10T23:57:30.564Z,101280.63
2018-08-10T23:59:35.503Z,101285.44
